sensor_id;sensor_type;location;lat;lon;timestamp;P1;durP1;ratioP1;P2;durP2;ratioP2
48993;SDS011;34804;49.214;12.276;2023-08-21T00:01:40;13.23;;;11.80;;
48993;SDS011;34804;49.214;12.276;2023-08-21T00:04:07;14.32;;;11.30;;
48993;SDS011;34804;49.214;12.276;2023-08-21T00:06:34;13.07;;;10.23;;
48993;SDS011;34804;49.214;12.276;2023-08-21T00:09:01;13.32;;;10.07;;
48993;SDS011;34804;49.214;12.276;2023-08-21T00:11:28;13.88;;;10.80;;
48993;SDS011;34804;49.214;12.276;2023-08-21T00:13:55;14.05;;;10.93;;
48993;SDS011;34804;49.214;12.276;2023-08-21T00:16:23;13.38;;;10.57;;
48993;SDS011;34804;49.214;12.276;2023-08-21T00:18:50;14.02;;;11.85;;
48993;SDS011;34804;49.214;12.276;2023-08-21T00:21:16;16.90;;;11.50;;
48993;SDS011;34804;49.214;12.276;2023-08-21T00:23:43;12.38;;;11.02;;
48993;SDS011;34804;49.214;12.276;2023-08-21T00:26:10;15.25;;;11.88;;
48993;SDS011;34804;49.214;12.276;2023-08-21T00:28:37;15.85;;;11.43;;
48993;SDS011;34804;49.214;12.276;2023-08-21T00:31:04;13.55;;;12.07;;
48993;SDS011;34804;49.214;12.276;2023-08-21T00:33:32;13.20;;;11.75;;
48993;SDS011;34804;49.214;12.276;2023-08-21T00:35:59;14.52;;;11.60;;
48993;SDS011;34804;49.214;12.276;2023-08-21T00:38:26;13.02;;;11.32;;
48993;SDS011;34804;49.214;12.276;2023-08-21T00:40:53;15.77;;;11.50;;
48993;SDS011;34804;49.214;12.276;2023-08-21T00:43:20;15.70;;;11.18;;
48993;SDS011;34804;49.214;12.276;2023-08-21T00:45:47;15.55;;;11.98;;
48993;SDS011;34804;49.214;12.276;2023-08-21T00:48:15;13.40;;;11.25;;
48993;SDS011;34804;49.214;12.276;2023-08-21T00:50:43;12.25;;;10.70;;
48993;SDS011;34804;49.214;12.276;2023-08-21T00:53:11;13.07;;;10.07;;
48993;SDS011;34804;49.214;12.276;2023-08-21T00:55:38;11.75;;;10.15;;
48993;SDS011;34804;49.214;12.276;2023-08-21T00:58:06;14.05;;;11.05;;
48993;SDS011;34804;49.214;12.276;2023-08-21T01:00:37;13.43;;;11.35;;
48993;SDS011;34804;49.214;12.276;2023-08-21T01:03:04;18.42;;;10.65;;
48993;SDS011;34804;49.214;12.276;2023-08-21T01:05:31;14.13;;;11.45;;
48993;SDS011;34804;49.214;12.276;2023-08-21T01:08:02;13.80;;;10.38;;
48993;SDS011;34804;49.214;12.276;2023-08-21T01:10:49;15.00;;;11.55;;
48993;SDS011;34804;49.214;12.276;2023-08-21T01:15:56;14.02;;;12.02;;
48993;SDS011;34804;49.214;12.276;2023-08-21T01:18:24;14.20;;;11.18;;
48993;SDS011;34804;49.214;12.276;2023-08-21T01:20:53;16.95;;;12.02;;
48993;SDS011;34804;49.214;12.276;2023-08-21T01:23:29;14.27;;;12.10;;
48993;SDS011;34804;49.214;12.276;2023-08-21T01:25:59;14.38;;;12.07;;
48993;SDS011;34804;49.214;12.276;2023-08-21T01:28:26;13.75;;;11.45;;
48993;SDS011;34804;49.214;12.276;2023-08-21T01:30:57;14.07;;;11.00;;
48993;SDS011;34804;49.214;12.276;2023-08-21T01:33:42;15.02;;;12.07;;
48993;SDS011;34804;49.214;12.276;2023-08-21T01:36:16;13.20;;;10.80;;
48993;SDS011;34804;49.214;12.276;2023-08-21T01:38:43;15.38;;;11.50;;
48993;SDS011;34804;49.214;12.276;2023-08-21T01:41:11;14.98;;;11.40;;
48993;SDS011;34804;49.214;12.276;2023-08-21T01:43:37;15.45;;;9.90;;
48993;SDS011;34804;49.214;12.276;2023-08-21T01:46:06;17.70;;;12.38;;
48993;SDS011;34804;49.214;12.276;2023-08-21T01:48:33;12.98;;;11.57;;
48993;SDS011;34804;49.214;12.276;2023-08-21T01:51:00;15.32;;;12.65;;
48993;SDS011;34804;49.214;12.276;2023-08-21T01:53:28;17.95;;;13.10;;
48993;SDS011;34804;49.214;12.276;2023-08-21T01:55:55;14.60;;;12.07;;
48993;SDS011;34804;49.214;12.276;2023-08-21T01:58:21;16.63;;;12.60;;
48993;SDS011;34804;49.214;12.276;2023-08-21T02:00:48;15.38;;;12.30;;
48993;SDS011;34804;49.214;12.276;2023-08-21T02:03:15;14.98;;;12.93;;
48993;SDS011;34804;49.214;12.276;2023-08-21T02:05:42;17.98;;;13.73;;
48993;SDS011;34804;49.214;12.276;2023-08-21T02:08:12;16.65;;;12.48;;
48993;SDS011;34804;49.214;12.276;2023-08-21T02:10:49;14.82;;;12.07;;
48993;SDS011;34804;49.214;12.276;2023-08-21T02:13:17;14.38;;;12.55;;
48993;SDS011;34804;49.214;12.276;2023-08-21T02:15:45;14.82;;;12.30;;
48993;SDS011;34804;49.214;12.276;2023-08-21T02:18:12;16.25;;;12.43;;
48993;SDS011;34804;49.214;12.276;2023-08-21T02:20:39;14.07;;;12.05;;
48993;SDS011;34804;49.214;12.276;2023-08-21T02:23:05;12.88;;;11.20;;
48993;SDS011;34804;49.214;12.276;2023-08-21T02:25:33;15.82;;;11.82;;
48993;SDS011;34804;49.214;12.276;2023-08-21T02:27:59;15.43;;;11.40;;
48993;SDS011;34804;49.214;12.276;2023-08-21T02:30:28;15.88;;;11.93;;
48993;SDS011;34804;49.214;12.276;2023-08-21T02:32:55;15.82;;;12.65;;
48993;SDS011;34804;49.214;12.276;2023-08-21T02:35:22;16.83;;;12.40;;
48993;SDS011;34804;49.214;12.276;2023-08-21T02:37:49;17.55;;;12.25;;
48993;SDS011;34804;49.214;12.276;2023-08-21T02:40:16;16.27;;;12.77;;
48993;SDS011;34804;49.214;12.276;2023-08-21T02:42:43;18.05;;;12.98;;
48993;SDS011;34804;49.214;12.276;2023-08-21T02:45:10;16.38;;;13.23;;
48993;SDS011;34804;49.214;12.276;2023-08-21T02:47:37;13.60;;;12.07;;
48993;SDS011;34804;49.214;12.276;2023-08-21T02:50:05;13.70;;;11.20;;
48993;SDS011;34804;49.214;12.276;2023-08-21T02:52:33;12.88;;;11.45;;
48993;SDS011;34804;49.214;12.276;2023-08-21T02:55:01;14.70;;;11.90;;
48993;SDS011;34804;49.214;12.276;2023-08-21T02:57:30;13.32;;;11.50;;
48993;SDS011;34804;49.214;12.276;2023-08-21T02:59:57;16.80;;;12.60;;
48993;SDS011;34804;49.214;12.276;2023-08-21T03:02:23;19.77;;;13.15;;
48993;SDS011;34804;49.214;12.276;2023-08-21T03:04:51;15.85;;;11.68;;
48993;SDS011;34804;49.214;12.276;2023-08-21T03:07:17;16.88;;;11.95;;
48993;SDS011;34804;49.214;12.276;2023-08-21T03:09:48;15.68;;;12.20;;
48993;SDS011;34804;49.214;12.276;2023-08-21T03:12:15;14.57;;;11.65;;
48993;SDS011;34804;49.214;12.276;2023-08-21T03:14:42;16.00;;;12.32;;
48993;SDS011;34804;49.214;12.276;2023-08-21T03:17:09;15.27;;;12.13;;
48993;SDS011;34804;49.214;12.276;2023-08-21T03:19:36;15.55;;;11.88;;
48993;SDS011;34804;49.214;12.276;2023-08-21T03:22:03;14.55;;;11.90;;
48993;SDS011;34804;49.214;12.276;2023-08-21T03:24:30;19.50;;;12.93;;
48993;SDS011;34804;49.214;12.276;2023-08-21T03:26:56;17.17;;;12.65;;
48993;SDS011;34804;49.214;12.276;2023-08-21T03:29:23;17.35;;;12.68;;
48993;SDS011;34804;49.214;12.276;2023-08-21T03:31:52;13.90;;;12.35;;
48993;SDS011;34804;49.214;12.276;2023-08-21T03:34:21;12.80;;;10.80;;
48993;SDS011;34804;49.214;12.276;2023-08-21T03:36:48;17.80;;;12.13;;
48993;SDS011;34804;49.214;12.276;2023-08-21T03:39:15;14.65;;;11.50;;
48993;SDS011;34804;49.214;12.276;2023-08-21T03:41:41;15.63;;;12.32;;
48993;SDS011;34804;49.214;12.276;2023-08-21T03:44:08;18.90;;;12.80;;
48993;SDS011;34804;49.214;12.276;2023-08-21T03:46:35;13.15;;;11.60;;
48993;SDS011;34804;49.214;12.276;2023-08-21T03:49:02;16.08;;;11.48;;
48993;SDS011;34804;49.214;12.276;2023-08-21T03:51:29;16.88;;;12.07;;
48993;SDS011;34804;49.214;12.276;2023-08-21T03:53:55;17.50;;;12.82;;
48993;SDS011;34804;49.214;12.276;2023-08-21T03:56:22;15.05;;;13.23;;
48993;SDS011;34804;49.214;12.276;2023-08-21T03:58:50;17.58;;;14.52;;
48993;SDS011;34804;49.214;12.276;2023-08-21T04:01:16;15.70;;;13.23;;
48993;SDS011;34804;49.214;12.276;2023-08-21T04:03:43;14.88;;;11.48;;
48993;SDS011;34804;49.214;12.276;2023-08-21T04:06:10;14.13;;;12.10;;
48993;SDS011;34804;49.214;12.276;2023-08-21T04:08:37;12.73;;;11.25;;
48993;SDS011;34804;49.214;12.276;2023-08-21T04:11:04;15.27;;;12.00;;
48993;SDS011;34804;49.214;12.276;2023-08-21T04:13:32;13.95;;;11.13;;
48993;SDS011;34804;49.214;12.276;2023-08-21T04:15:59;15.10;;;11.93;;
48993;SDS011;34804;49.214;12.276;2023-08-21T04:18:26;18.38;;;12.35;;
48993;SDS011;34804;49.214;12.276;2023-08-21T04:21:07;16.23;;;11.88;;
48993;SDS011;34804;49.214;12.276;2023-08-21T04:23:35;15.45;;;11.57;;
48993;SDS011;34804;49.214;12.276;2023-08-21T04:26:02;16.48;;;11.73;;
48993;SDS011;34804;49.214;12.276;2023-08-21T04:28:31;15.20;;;11.48;;
48993;SDS011;34804;49.214;12.276;2023-08-21T04:30:58;16.38;;;12.48;;
48993;SDS011;34804;49.214;12.276;2023-08-21T04:33:25;19.17;;;12.57;;
48993;SDS011;34804;49.214;12.276;2023-08-21T04:35:54;17.65;;;12.57;;
48993;SDS011;34804;49.214;12.276;2023-08-21T04:38:21;16.48;;;12.02;;
48993;SDS011;34804;49.214;12.276;2023-08-21T04:40:48;15.02;;;12.02;;
48993;SDS011;34804;49.214;12.276;2023-08-21T04:43:14;15.07;;;12.05;;
48993;SDS011;34804;49.214;12.276;2023-08-21T04:45:48;14.27;;;11.40;;
48993;SDS011;34804;49.214;12.276;2023-08-21T04:48:16;12.63;;;10.80;;
48993;SDS011;34804;49.214;12.276;2023-08-21T04:50:43;17.08;;;11.75;;
48993;SDS011;34804;49.214;12.276;2023-08-21T04:53:10;14.35;;;11.27;;
48993;SDS011;34804;49.214;12.276;2023-08-21T04:55:37;15.73;;;12.02;;
48993;SDS011;34804;49.214;12.276;2023-08-21T04:58:07;17.60;;;13.65;;
48993;SDS011;34804;49.214;12.276;2023-08-21T05:00:34;13.38;;;11.98;;
48993;SDS011;34804;49.214;12.276;2023-08-21T05:03:01;17.33;;;12.50;;
48993;SDS011;34804;49.214;12.276;2023-08-21T05:05:28;14.38;;;12.52;;
48993;SDS011;34804;49.214;12.276;2023-08-21T05:07:55;18.15;;;12.43;;
48993;SDS011;34804;49.214;12.276;2023-08-21T05:10:21;14.05;;;12.27;;
48993;SDS011;34804;49.214;12.276;2023-08-21T05:12:48;17.98;;;12.50;;
48993;SDS011;34804;49.214;12.276;2023-08-21T05:15:15;15.85;;;12.52;;
48993;SDS011;34804;49.214;12.276;2023-08-21T05:17:43;14.88;;;12.05;;
48993;SDS011;34804;49.214;12.276;2023-08-21T05:20:09;15.48;;;12.38;;
48993;SDS011;34804;49.214;12.276;2023-08-21T05:22:40;15.48;;;12.38;;
48993;SDS011;34804;49.214;12.276;2023-08-21T05:25:07;16.38;;;12.43;;
48993;SDS011;34804;49.214;12.276;2023-08-21T05:27:34;14.45;;;12.35;;
48993;SDS011;34804;49.214;12.276;2023-08-21T05:30:01;19.10;;;12.57;;
48993;SDS011;34804;49.214;12.276;2023-08-21T05:32:30;15.52;;;12.23;;
48993;SDS011;34804;49.214;12.276;2023-08-21T05:34:57;14.85;;;12.23;;
48993;SDS011;34804;49.214;12.276;2023-08-21T05:37:24;13.95;;;12.55;;
48993;SDS011;34804;49.214;12.276;2023-08-21T05:39:51;17.35;;;12.63;;
48993;SDS011;34804;49.214;12.276;2023-08-21T05:42:18;14.68;;;12.55;;
48993;SDS011;34804;49.214;12.276;2023-08-21T05:44:45;17.55;;;13.30;;
48993;SDS011;34804;49.214;12.276;2023-08-21T05:47:12;14.88;;;13.25;;
48993;SDS011;34804;49.214;12.276;2023-08-21T05:49:39;16.33;;;12.80;;
48993;SDS011;34804;49.214;12.276;2023-08-21T05:52:06;14.60;;;13.05;;
48993;SDS011;34804;49.214;12.276;2023-08-21T05:54:32;15.68;;;12.93;;
48993;SDS011;34804;49.214;12.276;2023-08-21T05:56:59;15.55;;;13.82;;
48993;SDS011;34804;49.214;12.276;2023-08-21T05:59:27;14.25;;;12.73;;
48993;SDS011;34804;49.214;12.276;2023-08-21T06:01:56;17.48;;;13.13;;
48993;SDS011;34804;49.214;12.276;2023-08-21T06:04:24;17.17;;;13.95;;
48993;SDS011;34804;49.214;12.276;2023-08-21T06:06:51;16.73;;;14.88;;
48993;SDS011;34804;49.214;12.276;2023-08-21T06:09:18;17.45;;;14.18;;
48993;SDS011;34804;49.214;12.276;2023-08-21T06:11:46;19.15;;;13.63;;
48993;SDS011;34804;49.214;12.276;2023-08-21T06:14:13;16.90;;;14.73;;
48993;SDS011;34804;49.214;12.276;2023-08-21T06:16:40;16.98;;;14.02;;
48993;SDS011;34804;49.214;12.276;2023-08-21T06:19:07;19.45;;;14.98;;
48993;SDS011;34804;49.214;12.276;2023-08-21T06:21:34;17.15;;;15.40;;
48993;SDS011;34804;49.214;12.276;2023-08-21T06:24:01;18.13;;;15.48;;
48993;SDS011;34804;49.214;12.276;2023-08-21T06:26:28;19.52;;;16.05;;
48993;SDS011;34804;49.214;12.276;2023-08-21T06:28:55;19.48;;;15.82;;
48993;SDS011;34804;49.214;12.276;2023-08-21T06:31:22;21.55;;;16.75;;
48993;SDS011;34804;49.214;12.276;2023-08-21T06:33:49;18.30;;;15.52;;
48993;SDS011;34804;49.214;12.276;2023-08-21T06:36:15;19.83;;;17.17;;
48993;SDS011;34804;49.214;12.276;2023-08-21T06:38:42;23.20;;;16.95;;
48993;SDS011;34804;49.214;12.276;2023-08-21T06:41:10;18.73;;;15.73;;
48993;SDS011;34804;49.214;12.276;2023-08-21T06:43:38;20.75;;;16.15;;
48993;SDS011;34804;49.214;12.276;2023-08-21T06:46:10;19.70;;;17.00;;
48993;SDS011;34804;49.214;12.276;2023-08-21T06:48:37;20.35;;;17.25;;
48993;SDS011;34804;49.214;12.276;2023-08-21T06:51:09;18.52;;;16.45;;
48993;SDS011;34804;49.214;12.276;2023-08-21T06:53:36;17.30;;;15.05;;
48993;SDS011;34804;49.214;12.276;2023-08-21T06:56:03;16.95;;;15.15;;
48993;SDS011;34804;49.214;12.276;2023-08-21T06:58:30;22.42;;;15.65;;
48993;SDS011;34804;49.214;12.276;2023-08-21T07:00:57;15.88;;;14.18;;
48993;SDS011;34804;49.214;12.276;2023-08-21T07:03:26;19.80;;;15.73;;
48993;SDS011;34804;49.214;12.276;2023-08-21T07:05:53;18.05;;;15.25;;
48993;SDS011;34804;49.214;12.276;2023-08-21T07:08:23;16.67;;;14.88;;
48993;SDS011;34804;49.214;12.276;2023-08-21T07:10:51;19.70;;;15.43;;
48993;SDS011;34804;49.214;12.276;2023-08-21T07:13:19;18.85;;;16.33;;
48993;SDS011;34804;49.214;12.276;2023-08-21T07:15:46;20.83;;;15.30;;
48993;SDS011;34804;49.214;12.276;2023-08-21T07:18:13;16.15;;;13.90;;
48993;SDS011;34804;49.214;12.276;2023-08-21T07:20:40;15.63;;;13.93;;
48993;SDS011;34804;49.214;12.276;2023-08-21T07:23:07;17.02;;;14.80;;
48993;SDS011;34804;49.214;12.276;2023-08-21T07:25:34;17.98;;;14.80;;
48993;SDS011;34804;49.214;12.276;2023-08-21T07:28:01;15.10;;;12.65;;
48993;SDS011;34804;49.214;12.276;2023-08-21T07:30:28;16.33;;;13.27;;
48993;SDS011;34804;49.214;12.276;2023-08-21T07:32:55;15.38;;;13.77;;
48993;SDS011;34804;49.214;12.276;2023-08-21T07:35:22;13.85;;;12.35;;
48993;SDS011;34804;49.214;12.276;2023-08-21T07:37:49;16.27;;;12.98;;
48993;SDS011;34804;49.214;12.276;2023-08-21T07:40:16;12.90;;;11.40;;
48993;SDS011;34804;49.214;12.276;2023-08-21T07:42:43;16.35;;;13.23;;
48993;SDS011;34804;49.214;12.276;2023-08-21T07:45:10;14.63;;;12.88;;
48993;SDS011;34804;49.214;12.276;2023-08-21T07:47:37;16.52;;;12.70;;
48993;SDS011;34804;49.214;12.276;2023-08-21T07:50:07;14.88;;;12.90;;
48993;SDS011;34804;49.214;12.276;2023-08-21T07:52:35;16.80;;;12.15;;
48993;SDS011;34804;49.214;12.276;2023-08-21T07:55:03;17.92;;;12.13;;
48993;SDS011;34804;49.214;12.276;2023-08-21T07:57:30;15.60;;;12.48;;
48993;SDS011;34804;49.214;12.276;2023-08-21T07:59:57;14.30;;;12.48;;
48993;SDS011;34804;49.214;12.276;2023-08-21T08:02:24;13.48;;;12.02;;
48993;SDS011;34804;49.214;12.276;2023-08-21T08:04:51;15.65;;;12.00;;
48993;SDS011;34804;49.214;12.276;2023-08-21T08:07:18;15.48;;;12.43;;
48993;SDS011;34804;49.214;12.276;2023-08-21T08:09:45;15.55;;;11.30;;
48993;SDS011;34804;49.214;12.276;2023-08-21T08:12:13;14.32;;;10.98;;
48993;SDS011;34804;49.214;12.276;2023-08-21T08:14:40;13.60;;;12.20;;
48993;SDS011;34804;49.214;12.276;2023-08-21T08:17:07;12.98;;;11.68;;
48993;SDS011;34804;49.214;12.276;2023-08-21T08:19:34;12.05;;;10.82;;
48993;SDS011;34804;49.214;12.276;2023-08-21T08:22:01;12.48;;;10.90;;
48993;SDS011;34804;49.214;12.276;2023-08-21T08:24:28;15.35;;;12.30;;
48993;SDS011;34804;49.214;12.276;2023-08-21T08:26:56;15.88;;;11.50;;
48993;SDS011;34804;49.214;12.276;2023-08-21T08:29:23;14.02;;;10.70;;
48993;SDS011;34804;49.214;12.276;2023-08-21T08:31:50;12.75;;;11.40;;
48993;SDS011;34804;49.214;12.276;2023-08-21T08:34:17;15.75;;;11.32;;
48993;SDS011;34804;49.214;12.276;2023-08-21T08:36:47;12.95;;;11.65;;
48993;SDS011;34804;49.214;12.276;2023-08-21T08:39:13;15.32;;;12.30;;
48993;SDS011;34804;49.214;12.276;2023-08-21T08:44:16;14.23;;;11.70;;
48993;SDS011;34804;49.214;12.276;2023-08-21T08:46:43;12.00;;;10.75;;
48993;SDS011;34804;49.214;12.276;2023-08-21T08:49:10;15.60;;;12.00;;
48993;SDS011;34804;49.214;12.276;2023-08-21T08:51:38;16.65;;;11.68;;
48993;SDS011;34804;49.214;12.276;2023-08-21T08:54:07;12.48;;;11.18;;
48993;SDS011;34804;49.214;12.276;2023-08-21T08:56:35;16.35;;;10.60;;
48993;SDS011;34804;49.214;12.276;2023-08-21T08:59:02;12.30;;;10.60;;
48993;SDS011;34804;49.214;12.276;2023-08-21T09:01:29;12.07;;;10.82;;
48993;SDS011;34804;49.214;12.276;2023-08-21T09:03:57;14.70;;;10.95;;
48993;SDS011;34804;49.214;12.276;2023-08-21T09:06:24;11.00;;;9.80;;
48993;SDS011;34804;49.214;12.276;2023-08-21T09:08:55;10.82;;;9.50;;
48993;SDS011;34804;49.214;12.276;2023-08-21T09:11:23;12.95;;;10.00;;
48993;SDS011;34804;49.214;12.276;2023-08-21T09:13:51;12.75;;;10.18;;
48993;SDS011;34804;49.214;12.276;2023-08-21T09:16:19;12.85;;;9.52;;
48993;SDS011;34804;49.214;12.276;2023-08-21T09:18:51;12.25;;;10.95;;
48993;SDS011;34804;49.214;12.276;2023-08-21T09:21:25;16.45;;;10.52;;
48993;SDS011;34804;49.214;12.276;2023-08-21T09:24:00;11.18;;;9.23;;
48993;SDS011;34804;49.214;12.276;2023-08-21T09:26:31;12.38;;;9.88;;
48993;SDS011;34804;49.214;12.276;2023-08-21T09:28:59;17.02;;;9.55;;
48993;SDS011;34804;49.214;12.276;2023-08-21T09:31:31;10.75;;;9.65;;
48993;SDS011;34804;49.214;12.276;2023-08-21T09:33:59;12.38;;;9.18;;
48993;SDS011;34804;49.214;12.276;2023-08-21T09:36:31;11.65;;;8.52;;
48993;SDS011;34804;49.214;12.276;2023-08-21T09:38:58;10.85;;;8.55;;
48993;SDS011;34804;49.214;12.276;2023-08-21T09:41:26;12.90;;;8.13;;
48993;SDS011;34804;49.214;12.276;2023-08-21T09:43:54;11.25;;;7.82;;
48993;SDS011;34804;49.214;12.276;2023-08-21T09:46:26;7.70;;;6.90;;
48993;SDS011;34804;49.214;12.276;2023-08-21T09:48:53;10.20;;;6.97;;
48993;SDS011;34804;49.214;12.276;2023-08-21T09:51:21;9.75;;;8.40;;
48993;SDS011;34804;49.214;12.276;2023-08-21T09:53:48;8.60;;;6.93;;
48993;SDS011;34804;49.214;12.276;2023-08-21T09:56:19;10.32;;;7.75;;
48993;SDS011;34804;49.214;12.276;2023-08-21T09:58:47;8.98;;;7.20;;
48993;SDS011;34804;49.214;12.276;2023-08-21T10:01:15;8.35;;;6.55;;
48993;SDS011;34804;49.214;12.276;2023-08-21T10:03:44;9.15;;;6.88;;
48993;SDS011;34804;49.214;12.276;2023-08-21T10:06:17;8.15;;;6.50;;
48993;SDS011;34804;49.214;12.276;2023-08-21T10:08:48;9.13;;;6.47;;
48993;SDS011;34804;49.214;12.276;2023-08-21T10:11:20;10.00;;;6.75;;
48993;SDS011;34804;49.214;12.276;2023-08-21T10:13:49;10.27;;;6.47;;
48993;SDS011;34804;49.214;12.276;2023-08-21T10:16:19;7.70;;;6.10;;
48993;SDS011;34804;49.214;12.276;2023-08-21T10:18:48;8.50;;;6.35;;
48993;SDS011;34804;49.214;12.276;2023-08-21T10:21:19;8.80;;;6.47;;
48993;SDS011;34804;49.214;12.276;2023-08-21T10:23:48;9.02;;;6.10;;
48993;SDS011;34804;49.214;12.276;2023-08-21T10:26:20;9.35;;;6.07;;
48993;SDS011;34804;49.214;12.276;2023-08-21T10:31:49;7.65;;;5.72;;
48993;SDS011;34804;49.214;12.276;2023-08-21T10:34:10;8.55;;;5.85;;
48993;SDS011;34804;49.214;12.276;2023-08-21T10:42:19;8.02;;;5.72;;
48993;SDS011;34804;49.214;12.276;2023-08-21T10:44:46;7.20;;;5.50;;
48993;SDS011;34804;49.214;12.276;2023-08-21T10:47:22;7.78;;;5.72;;
48993;SDS011;34804;49.214;12.276;2023-08-21T10:49:51;7.50;;;5.10;;
48993;SDS011;34804;49.214;12.276;2023-08-21T10:52:23;9.18;;;6.00;;
48993;SDS011;34804;49.214;12.276;2023-08-21T10:54:55;8.82;;;5.35;;
48993;SDS011;34804;49.214;12.276;2023-08-21T10:57:23;7.88;;;5.10;;
48993;SDS011;34804;49.214;12.276;2023-08-21T10:59:55;7.30;;;5.70;;
48993;SDS011;34804;49.214;12.276;2023-08-21T11:02:41;8.88;;;6.30;;
48993;SDS011;34804;49.214;12.276;2023-08-21T11:05:10;9.33;;;6.13;;
48993;SDS011;34804;49.214;12.276;2023-08-21T11:07:46;7.30;;;6.15;;
48993;SDS011;34804;49.214;12.276;2023-08-21T11:10:18;9.32;;;7.07;;
48993;SDS011;34804;49.214;12.276;2023-08-21T11:15:22;8.95;;;7.20;;
48993;SDS011;34804;49.214;12.276;2023-08-21T11:17:54;9.20;;;7.30;;
48993;SDS011;34804;49.214;12.276;2023-08-21T11:20:27;11.00;;;7.32;;
48993;SDS011;34804;49.214;12.276;2023-08-21T11:22:59;9.00;;;6.75;;
48993;SDS011;34804;49.214;12.276;2023-08-21T11:25:29;7.18;;;6.20;;
48993;SDS011;34804;49.214;12.276;2023-08-21T11:27:56;7.07;;;5.78;;
48993;SDS011;34804;49.214;12.276;2023-08-21T11:30:23;7.75;;;5.55;;
48993;SDS011;34804;49.214;12.276;2023-08-21T11:35:33;8.70;;;5.82;;
48993;SDS011;34804;49.214;12.276;2023-08-21T11:38:03;8.65;;;6.13;;
48993;SDS011;34804;49.214;12.276;2023-08-21T11:40:35;8.60;;;5.93;;
48993;SDS011;34804;49.214;12.276;2023-08-21T11:43:02;7.80;;;6.32;;
48993;SDS011;34804;49.214;12.276;2023-08-21T11:45:31;7.88;;;6.25;;
48993;SDS011;34804;49.214;12.276;2023-08-21T11:48:19;8.77;;;6.90;;
48993;SDS011;34804;49.214;12.276;2023-08-21T11:50:47;10.90;;;7.00;;
48993;SDS011;34804;49.214;12.276;2023-08-21T11:53:14;9.23;;;6.63;;
48993;SDS011;34804;49.214;12.276;2023-08-21T11:55:41;8.40;;;6.60;;
48993;SDS011;34804;49.214;12.276;2023-08-21T11:58:08;12.60;;;6.57;;
48993;SDS011;34804;49.214;12.276;2023-08-21T12:00:35;7.78;;;6.40;;
48993;SDS011;34804;49.214;12.276;2023-08-21T12:03:02;7.35;;;6.28;;
48993;SDS011;34804;49.214;12.276;2023-08-21T12:05:32;9.05;;;6.88;;
48993;SDS011;34804;49.214;12.276;2023-08-21T12:07:59;8.05;;;6.68;;
48993;SDS011;34804;49.214;12.276;2023-08-21T12:10:27;8.40;;;6.50;;
48993;SDS011;34804;49.214;12.276;2023-08-21T12:12:55;9.52;;;6.82;;
48993;SDS011;34804;49.214;12.276;2023-08-21T12:15:22;7.93;;;6.00;;
48993;SDS011;34804;49.214;12.276;2023-08-21T12:17:49;10.15;;;7.00;;
48993;SDS011;34804;49.214;12.276;2023-08-21T12:20:16;10.25;;;6.63;;
48993;SDS011;34804;49.214;12.276;2023-08-21T12:22:43;8.07;;;6.57;;
48993;SDS011;34804;49.214;12.276;2023-08-21T12:25:10;10.80;;;6.50;;
48993;SDS011;34804;49.214;12.276;2023-08-21T12:27:39;7.82;;;6.00;;
48993;SDS011;34804;49.214;12.276;2023-08-21T12:30:07;10.30;;;6.57;;
48993;SDS011;34804;49.214;12.276;2023-08-21T12:32:34;8.77;;;6.38;;
48993;SDS011;34804;49.214;12.276;2023-08-21T12:35:01;7.72;;;6.10;;
48993;SDS011;34804;49.214;12.276;2023-08-21T12:37:28;11.75;;;6.75;;
48993;SDS011;34804;49.214;12.276;2023-08-21T12:39:55;7.97;;;6.40;;
48993;SDS011;34804;49.214;12.276;2023-08-21T12:42:22;9.00;;;6.35;;
48993;SDS011;34804;49.214;12.276;2023-08-21T12:44:49;9.82;;;5.72;;
48993;SDS011;34804;49.214;12.276;2023-08-21T12:47:16;7.63;;;5.63;;
48993;SDS011;34804;49.214;12.276;2023-08-21T12:49:43;8.43;;;5.40;;
48993;SDS011;34804;49.214;12.276;2023-08-21T12:52:09;8.32;;;5.90;;
48993;SDS011;34804;49.214;12.276;2023-08-21T12:54:38;6.90;;;5.25;;
48993;SDS011;34804;49.214;12.276;2023-08-21T12:57:05;6.82;;;5.38;;
48993;SDS011;34804;49.214;12.276;2023-08-21T12:59:33;11.30;;;5.85;;
48993;SDS011;34804;49.214;12.276;2023-08-21T13:02:00;7.47;;;5.22;;
48993;SDS011;34804;49.214;12.276;2023-08-21T13:04:28;8.35;;;5.55;;
48993;SDS011;34804;49.214;12.276;2023-08-21T13:06:55;7.38;;;6.10;;
48993;SDS011;34804;49.214;12.276;2023-08-21T13:09:22;7.78;;;6.07;;
48993;SDS011;34804;49.214;12.276;2023-08-21T13:11:51;9.57;;;5.95;;
48993;SDS011;34804;49.214;12.276;2023-08-21T13:14:18;9.38;;;5.97;;
48993;SDS011;34804;49.214;12.276;2023-08-21T13:16:45;9.27;;;5.28;;
48993;SDS011;34804;49.214;12.276;2023-08-21T13:19:12;7.25;;;5.20;;
48993;SDS011;34804;49.214;12.276;2023-08-21T13:21:38;7.00;;;5.70;;
48993;SDS011;34804;49.214;12.276;2023-08-21T13:24:05;9.05;;;5.38;;
48993;SDS011;34804;49.214;12.276;2023-08-21T13:26:32;7.90;;;5.63;;
48993;SDS011;34804;49.214;12.276;2023-08-21T13:28:59;10.73;;;5.05;;
48993;SDS011;34804;49.214;12.276;2023-08-21T13:31:26;7.10;;;4.78;;
48993;SDS011;34804;49.214;12.276;2023-08-21T13:33:55;7.38;;;4.82;;
48993;SDS011;34804;49.214;12.276;2023-08-21T13:36:22;8.45;;;4.65;;
48993;SDS011;34804;49.214;12.276;2023-08-21T13:38:54;7.95;;;4.85;;
48993;SDS011;34804;49.214;12.276;2023-08-21T13:41:21;9.35;;;4.85;;
48993;SDS011;34804;49.214;12.276;2023-08-21T13:43:48;8.05;;;4.78;;
48993;SDS011;34804;49.214;12.276;2023-08-21T13:46:16;7.78;;;4.50;;
48993;SDS011;34804;49.214;12.276;2023-08-21T13:48:43;9.20;;;4.32;;
48993;SDS011;34804;49.214;12.276;2023-08-21T13:51:09;8.85;;;4.55;;
48993;SDS011;34804;49.214;12.276;2023-08-21T13:53:36;8.75;;;4.40;;
48993;SDS011;34804;49.214;12.276;2023-08-21T13:56:03;11.02;;;4.78;;
48993;SDS011;34804;49.214;12.276;2023-08-21T13:58:30;7.57;;;4.78;;
48993;SDS011;34804;49.214;12.276;2023-08-21T14:00:57;8.45;;;4.85;;
48993;SDS011;34804;49.214;12.276;2023-08-21T14:03:24;7.78;;;4.68;;
48993;SDS011;34804;49.214;12.276;2023-08-21T14:05:51;8.40;;;4.97;;
48993;SDS011;34804;49.214;12.276;2023-08-21T14:08:18;8.30;;;4.80;;
48993;SDS011;34804;49.214;12.276;2023-08-21T14:10:45;7.22;;;4.95;;
48993;SDS011;34804;49.214;12.276;2023-08-21T14:13:12;8.43;;;4.63;;
48993;SDS011;34804;49.214;12.276;2023-08-21T14:15:38;7.97;;;4.45;;
48993;SDS011;34804;49.214;12.276;2023-08-21T14:18:05;6.35;;;4.60;;
48993;SDS011;34804;49.214;12.276;2023-08-21T14:20:32;7.05;;;4.68;;
48993;SDS011;34804;49.214;12.276;2023-08-21T14:22:59;7.70;;;4.40;;
48993;SDS011;34804;49.214;12.276;2023-08-21T14:25:26;7.20;;;4.28;;
48993;SDS011;34804;49.214;12.276;2023-08-21T14:27:53;9.07;;;4.32;;
48993;SDS011;34804;49.214;12.276;2023-08-21T14:30:20;7.45;;;4.35;;
48993;SDS011;34804;49.214;12.276;2023-08-21T14:32:47;7.60;;;4.70;;
48993;SDS011;34804;49.214;12.276;2023-08-21T14:35:14;10.10;;;4.78;;
48993;SDS011;34804;49.214;12.276;2023-08-21T14:37:41;9.63;;;5.25;;
48993;SDS011;34804;49.214;12.276;2023-08-21T14:40:07;8.68;;;4.38;;